Aérodrome :
LOGIN :

S'inscrire | Disclaimer

   EN    FR    IT 

 










Légende :    VFR   VFR Marginal   IFR   IFR Intensif   IFR Très Intensif
Visi : 
Plafond : 
>= 8 km
>= 3000ft
5 à 8 km
1000 à 3000 ft
1500m à 5 km
500 à 1000 ft
800 à 1500m
200 à 500 ft
< 800m
< 200 ft
Symboles :   Orages  Brouillard  Fortes neiges  Fortes précipitations  Vent > 20 kt
SIGMETs :   Divers  Orages  Givrage  Turbulence  Onde Orograph.  Cendres Volcan.







- Altitude de l'aérodrome : 1521 ft
- Code IATA : NCY
- Voir les cartes d'approche


LFLP - Annecy

DERNIER METAR :
  • 162300Z AUTO 03004KT CAVOK 17/16 Q1021

METARs EXPIRÉS :
  • 162230Z AUTO 01004KT CAVOK 18/16 Q1021
  • 162200Z AUTO 01003KT CAVOK 18/17 Q1021
  • 162130Z AUTO 34003KT CAVOK 19/17 Q1021
  • 162100Z AUTO 36003KT CAVOK 20/17 Q1021
  • 162030Z AUTO 35003KT CAVOK 20/17 Q1021

TAF TAF LFLP
Valide du 16 à 15h jusqu'au 17 à 15h UTC


161400Z 1615/1715 VRB02KT CAVOK
PROB30
TEMPO 1615/1618 24006KT -SHRA SCT090CB BKN100
Pas de NOTAMs connus pour ce terrain.



MET'MAP, la Météo Aéronautique d'un coup d'oeil ! - Copyright ORBIFLY Décembre 2007 - Disclaimer

ORBIFLY MET'MAP TEAM :

Programmation & Développement : Alexandra Zaïnal
Conception & Développement : Baudouin d'Aumeries
Co-Programmation & Développement : Marc-Olivier Méhu
Soutien technique & logistique : Manuel Goepfert

Contact : metmap@orbifly.com




SOURCES & CREDITS :

   NOAA